sensor_id;sensor_type;location;lat;lon;timestamp;temperature;humidity
7498;DHT22;3790;48.806;9.140;2023-08-07T00:03:07;11.50;99.90
7498;DHT22;3790;48.806;9.140;2023-08-07T00:08:07;11.60;99.90
7498;DHT22;3790;48.806;9.140;2023-08-07T00:13:08;11.50;99.90
7498;DHT22;3790;48.806;9.140;2023-08-07T00:18:08;11.50;99.90
7498;DHT22;3790;48.806;9.140;2023-08-07T00:23:09;11.50;99.90
7498;DHT22;3790;48.806;9.140;2023-08-07T00:28:09;11.50;99.90
7498;DHT22;3790;48.806;9.140;2023-08-07T00:33:10;11.60;99.90
7498;DHT22;3790;48.806;9.140;2023-08-07T00:38:11;11.60;99.90
7498;DHT22;3790;48.806;9.140;2023-08-07T00:43:12;11.70;99.90
7498;DHT22;3790;48.806;9.140;2023-08-07T00:48:13;11.70;99.90
7498;DHT22;3790;48.806;9.140;2023-08-07T00:53:15;11.80;99.90
7498;DHT22;3790;48.806;9.140;2023-08-07T00:58:16;11.80;99.90
7498;DHT22;3790;48.806;9.140;2023-08-07T01:03:17;11.80;99.90
7498;DHT22;3790;48.806;9.140;2023-08-07T01:08:17;11.80;99.90
7498;DHT22;3790;48.806;9.140;2023-08-07T01:14:00;11.80;99.90
7498;DHT22;3790;48.806;9.140;2023-08-07T01:19:04;11.90;99.90
7498;DHT22;3790;48.806;9.140;2023-08-07T01:24:09;11.80;99.90
7498;DHT22;3790;48.806;9.140;2023-08-07T01:29:15;11.90;99.90
7498;DHT22;3790;48.806;9.140;2023-08-07T01:34:21;12.00;99.90
7498;DHT22;3790;48.806;9.140;2023-08-07T01:39:24;12.00;99.90
7498;DHT22;3790;48.806;9.140;2023-08-07T01:44:25;11.90;99.90
7498;DHT22;3790;48.806;9.140;2023-08-07T01:49:25;12.00;99.90
7498;DHT22;3790;48.806;9.140;2023-08-07T01:54:26;12.00;99.90
7498;DHT22;3790;48.806;9.140;2023-08-07T01:59:27;11.90;99.90
7498;DHT22;3790;48.806;9.140;2023-08-07T02:04:27;11.90;99.90
7498;DHT22;3790;48.806;9.140;2023-08-07T02:09:28;11.90;99.90
7498;DHT22;3790;48.806;9.140;2023-08-07T02:14:28;11.90;99.90
7498;DHT22;3790;48.806;9.140;2023-08-07T02:19:29;11.90;99.90
7498;DHT22;3790;48.806;9.140;2023-08-07T02:24:29;11.90;99.90
7498;DHT22;3790;48.806;9.140;2023-08-07T02:29:30;11.90;99.90
7498;DHT22;3790;48.806;9.140;2023-08-07T02:34:31;11.90;99.90
7498;DHT22;3790;48.806;9.140;2023-08-07T02:39:31;11.90;99.90
7498;DHT22;3790;48.806;9.140;2023-08-07T02:44:32;11.80;99.90
7498;DHT22;3790;48.806;9.140;2023-08-07T02:49:32;11.80;99.90
7498;DHT22;3790;48.806;9.140;2023-08-07T02:54:33;11.80;99.90
7498;DHT22;3790;48.806;9.140;2023-08-07T02:59:33;11.70;99.90
7498;DHT22;3790;48.806;9.140;2023-08-07T03:04:34;11.70;99.90
7498;DHT22;3790;48.806;9.140;2023-08-07T03:09:34;11.70;99.90
7498;DHT22;3790;48.806;9.140;2023-08-07T03:14:35;11.60;99.90
7498;DHT22;3790;48.806;9.140;2023-08-07T03:19:35;11.70;99.90
7498;DHT22;3790;48.806;9.140;2023-08-07T03:24:36;11.70;99.90
7498;DHT22;3790;48.806;9.140;2023-08-07T03:29:36;11.70;99.90
7498;DHT22;3790;48.806;9.140;2023-08-07T03:34:37;11.70;99.90
7498;DHT22;3790;48.806;9.140;2023-08-07T03:39:37;11.70;99.90
7498;DHT22;3790;48.806;9.140;2023-08-07T03:44:38;11.70;99.90
7498;DHT22;3790;48.806;9.140;2023-08-07T03:49:38;11.70;99.90
7498;DHT22;3790;48.806;9.140;2023-08-07T03:54:39;11.70;99.90
7498;DHT22;3790;48.806;9.140;2023-08-07T03:59:39;11.80;99.90
7498;DHT22;3790;48.806;9.140;2023-08-07T04:04:42;11.80;99.90
7498;DHT22;3790;48.806;9.140;2023-08-07T04:09:43;11.80;99.90
7498;DHT22;3790;48.806;9.140;2023-08-07T04:14:43;11.60;99.90
7498;DHT22;3790;48.806;9.140;2023-08-07T04:19:44;11.60;99.90
7498;DHT22;3790;48.806;9.140;2023-08-07T04:24:44;11.60;99.90
7498;DHT22;3790;48.806;9.140;2023-08-07T04:29:45;11.70;99.90
7498;DHT22;3790;48.806;9.140;2023-08-07T04:34:46;11.80;99.90
7498;DHT22;3790;48.806;9.140;2023-08-07T04:39:46;11.80;99.90
7498;DHT22;3790;48.806;9.140;2023-08-07T04:44:47;11.90;99.90
7498;DHT22;3790;48.806;9.140;2023-08-07T04:49:47;11.80;99.90
7498;DHT22;3790;48.806;9.140;2023-08-07T04:54:48;11.90;99.90
7498;DHT22;3790;48.806;9.140;2023-08-07T04:59:48;11.90;99.90
7498;DHT22;3790;48.806;9.140;2023-08-07T05:04:49;11.90;99.90
7498;DHT22;3790;48.806;9.140;2023-08-07T05:09:49;12.00;99.90
7498;DHT22;3790;48.806;9.140;2023-08-07T05:14:51;12.00;99.90
7498;DHT22;3790;48.806;9.140;2023-08-07T05:19:51;12.00;99.90
7498;DHT22;3790;48.806;9.140;2023-08-07T05:24:52;12.10;99.90
7498;DHT22;3790;48.806;9.140;2023-08-07T05:29:52;12.10;99.90
7498;DHT22;3790;48.806;9.140;2023-08-07T05:34:53;12.20;99.90
7498;DHT22;3790;48.806;9.140;2023-08-07T05:39:53;12.30;99.90
7498;DHT22;3790;48.806;9.140;2023-08-07T05:44:54;12.50;99.90
7498;DHT22;3790;48.806;9.140;2023-08-07T05:49:54;12.60;99.90
7498;DHT22;3790;48.806;9.140;2023-08-07T05:54:55;12.60;99.90
7498;DHT22;3790;48.806;9.140;2023-08-07T05:59:55;12.70;99.90
7498;DHT22;3790;48.806;9.140;2023-08-07T06:04:56;12.80;99.90
7498;DHT22;3790;48.806;9.140;2023-08-07T06:09:57;12.90;99.90
7498;DHT22;3790;48.806;9.140;2023-08-07T06:14:57;12.80;99.90
7498;DHT22;3790;48.806;9.140;2023-08-07T06:20:00;12.90;99.90
7498;DHT22;3790;48.806;9.140;2023-08-07T06:25:01;12.80;99.90
7498;DHT22;3790;48.806;9.140;2023-08-07T06:30:02;12.90;99.90
7498;DHT22;3790;48.806;9.140;2023-08-07T06:35:03;12.80;99.90
7498;DHT22;3790;48.806;9.140;2023-08-07T06:40:05;13.10;99.90
7498;DHT22;3790;48.806;9.140;2023-08-07T06:45:06;13.30;99.90
7498;DHT22;3790;48.806;9.140;2023-08-07T06:50:07;13.30;99.90
7498;DHT22;3790;48.806;9.140;2023-08-07T06:55:07;13.30;99.90
7498;DHT22;3790;48.806;9.140;2023-08-07T07:00:08;13.40;99.90
7498;DHT22;3790;48.806;9.140;2023-08-07T07:05:11;13.50;99.90
7498;DHT22;3790;48.806;9.140;2023-08-07T07:10:12;14.00;99.90
7498;DHT22;3790;48.806;9.140;2023-08-07T07:15:12;14.30;99.90
7498;DHT22;3790;48.806;9.140;2023-08-07T07:20:13;13.90;99.90
7498;DHT22;3790;48.806;9.140;2023-08-07T07:25:14;13.80;99.90
7498;DHT22;3790;48.806;9.140;2023-08-07T07:30:14;13.50;99.90
7498;DHT22;3790;48.806;9.140;2023-08-07T07:35:15;13.50;99.90
7498;DHT22;3790;48.806;9.140;2023-08-07T07:40:15;13.50;99.90
7498;DHT22;3790;48.806;9.140;2023-08-07T07:45:16;13.90;99.90
7498;DHT22;3790;48.806;9.140;2023-08-07T07:50:16;14.00;99.90
7498;DHT22;3790;48.806;9.140;2023-08-07T07:55:17;14.20;99.90
7498;DHT22;3790;48.806;9.140;2023-08-07T08:00:18;14.30;99.90
7498;DHT22;3790;48.806;9.140;2023-08-07T08:05:18;14.20;99.90
7498;DHT22;3790;48.806;9.140;2023-08-07T08:10:19;14.20;99.90
7498;DHT22;3790;48.806;9.140;2023-08-07T08:15:20;14.00;99.90
7498;DHT22;3790;48.806;9.140;2023-08-07T08:20:21;14.10;99.90
7498;DHT22;3790;48.806;9.140;2023-08-07T08:25:22;14.00;99.90
7498;DHT22;3790;48.806;9.140;2023-08-07T08:30:22;14.10;99.90
7498;DHT22;3790;48.806;9.140;2023-08-07T08:35:23;14.40;99.90
7498;DHT22;3790;48.806;9.140;2023-08-07T08:40:24;14.60;99.90
7498;DHT22;3790;48.806;9.140;2023-08-07T08:45:25;14.60;99.90
7498;DHT22;3790;48.806;9.140;2023-08-07T08:50:26;14.90;99.90
7498;DHT22;3790;48.806;9.140;2023-08-07T08:55:27;14.90;99.90
7498;DHT22;3790;48.806;9.140;2023-08-07T09:00:28;14.90;99.90
7498;DHT22;3790;48.806;9.140;2023-08-07T09:05:31;14.90;99.90
7498;DHT22;3790;48.806;9.140;2023-08-07T09:10:32;15.30;99.90
7498;DHT22;3790;48.806;9.140;2023-08-07T09:15:33;15.20;99.90
7498;DHT22;3790;48.806;9.140;2023-08-07T09:20:36;15.20;99.90
7498;DHT22;3790;48.806;9.140;2023-08-07T09:25:39;15.50;99.90
7498;DHT22;3790;48.806;9.140;2023-08-07T09:30:41;15.40;99.90
7498;DHT22;3790;48.806;9.140;2023-08-07T09:35:45;15.50;99.90
7498;DHT22;3790;48.806;9.140;2023-08-07T09:40:45;15.40;99.90
7498;DHT22;3790;48.806;9.140;2023-08-07T09:45:46;15.20;99.90
7498;DHT22;3790;48.806;9.140;2023-08-07T09:50:46;15.70;99.90
7498;DHT22;3790;48.806;9.140;2023-08-07T09:55:47;15.70;99.90
7498;DHT22;3790;48.806;9.140;2023-08-07T10:00:50;15.60;99.90
7498;DHT22;3790;48.806;9.140;2023-08-07T10:05:54;15.60;99.90
7498;DHT22;3790;48.806;9.140;2023-08-07T10:10:54;16.00;99.90
7498;DHT22;3790;48.806;9.140;2023-08-07T10:15:55;15.80;99.90
7498;DHT22;3790;48.806;9.140;2023-08-07T10:20:57;16.10;99.90
7498;DHT22;3790;48.806;9.140;2023-08-07T10:25:58;16.00;99.90
7498;DHT22;3790;48.806;9.140;2023-08-07T10:30:59;15.70;99.90
7498;DHT22;3790;48.806;9.140;2023-08-07T10:36:00;16.00;99.90
7498;DHT22;3790;48.806;9.140;2023-08-07T10:41:18;15.80;99.90
7498;DHT22;3790;48.806;9.140;2023-08-07T10:46:22;15.80;99.90
7498;DHT22;3790;48.806;9.140;2023-08-07T10:51:28;15.60;99.90
7498;DHT22;3790;48.806;9.140;2023-08-07T10:56:31;15.70;99.90
7498;DHT22;3790;48.806;9.140;2023-08-07T11:06:36;16.60;99.90
7498;DHT22;3790;48.806;9.140;2023-08-07T11:16:41;16.40;99.90
7498;DHT22;3790;48.806;9.140;2023-08-07T11:21:42;16.10;99.90
7498;DHT22;3790;48.806;9.140;2023-08-07T11:26:44;15.90;99.90
7498;DHT22;3790;48.806;9.140;2023-08-07T11:31:45;15.80;99.90
7498;DHT22;3790;48.806;9.140;2023-08-07T11:36:46;15.70;99.90
7498;DHT22;3790;48.806;9.140;2023-08-07T11:41:49;15.70;99.90
7498;DHT22;3790;48.806;9.140;2023-08-07T11:46:51;15.50;99.90
7498;DHT22;3790;48.806;9.140;2023-08-07T11:51:51;15.50;99.90
7498;DHT22;3790;48.806;9.140;2023-08-07T11:56:52;15.40;99.90
7498;DHT22;3790;48.806;9.140;2023-08-07T12:01:53;15.40;99.90
7498;DHT22;3790;48.806;9.140;2023-08-07T12:06:54;15.50;99.90
7498;DHT22;3790;48.806;9.140;2023-08-07T12:11:59;15.70;99.90
7498;DHT22;3790;48.806;9.140;2023-08-07T12:17:03;15.80;99.90
7498;DHT22;3790;48.806;9.140;2023-08-07T12:22:06;16.20;99.90
7498;DHT22;3790;48.806;9.140;2023-08-07T12:27:07;16.20;99.90
7498;DHT22;3790;48.806;9.140;2023-08-07T12:32:08;16.30;99.90
7498;DHT22;3790;48.806;9.140;2023-08-07T12:37:10;16.30;99.90
7498;DHT22;3790;48.806;9.140;2023-08-07T12:42:10;16.40;99.90
7498;DHT22;3790;48.806;9.140;2023-08-07T12:47:11;16.40;99.90
7498;DHT22;3790;48.806;9.140;2023-08-07T12:52:11;16.70;99.90
7498;DHT22;3790;48.806;9.140;2023-08-07T12:57:12;16.80;99.90
7498;DHT22;3790;48.806;9.140;2023-08-07T13:02:12;16.70;99.90
7498;DHT22;3790;48.806;9.140;2023-08-07T13:07:13;16.70;99.90
7498;DHT22;3790;48.806;9.140;2023-08-07T13:12:13;16.40;99.90
7498;DHT22;3790;48.806;9.140;2023-08-07T13:17:14;16.60;99.90
7498;DHT22;3790;48.806;9.140;2023-08-07T13:22:14;16.70;99.90
7498;DHT22;3790;48.806;9.140;2023-08-07T13:27:14;16.60;99.90
7498;DHT22;3790;48.806;9.140;2023-08-07T13:32:15;16.50;99.90
7498;DHT22;3790;48.806;9.140;2023-08-07T13:37:18;16.80;99.90
7498;DHT22;3790;48.806;9.140;2023-08-07T13:42:19;17.20;99.90
7498;DHT22;3790;48.806;9.140;2023-08-07T13:47:20;17.80;99.90
7498;DHT22;3790;48.806;9.140;2023-08-07T13:52:21;17.50;99.90
7498;DHT22;3790;48.806;9.140;2023-08-07T13:57:21;17.40;99.90
7498;DHT22;3790;48.806;9.140;2023-08-07T14:02:22;17.60;99.90
7498;DHT22;3790;48.806;9.140;2023-08-07T14:07:23;17.30;99.90
7498;DHT22;3790;48.806;9.140;2023-08-07T14:12:24;17.20;99.90
7498;DHT22;3790;48.806;9.140;2023-08-07T14:17:24;17.70;99.90
7498;DHT22;3790;48.806;9.140;2023-08-07T14:22:25;18.80;99.90
7498;DHT22;3790;48.806;9.140;2023-08-07T14:27:25;18.40;99.90
7498;DHT22;3790;48.806;9.140;2023-08-07T14:32:26;17.80;99.90
7498;DHT22;3790;48.806;9.140;2023-08-07T14:37:26;17.30;99.90
7498;DHT22;3790;48.806;9.140;2023-08-07T14:42:27;17.50;99.90
7498;DHT22;3790;48.806;9.140;2023-08-07T14:47:27;17.80;99.90
7498;DHT22;3790;48.806;9.140;2023-08-07T14:52:28;18.10;99.90
7498;DHT22;3790;48.806;9.140;2023-08-07T14:57:29;18.50;99.90
7498;DHT22;3790;48.806;9.140;2023-08-07T15:02:30;19.10;99.90
7498;DHT22;3790;48.806;9.140;2023-08-07T15:07:30;18.60;99.90
7498;DHT22;3790;48.806;9.140;2023-08-07T15:12:31;18.40;99.90
7498;DHT22;3790;48.806;9.140;2023-08-07T15:17:31;17.80;99.90
7498;DHT22;3790;48.806;9.140;2023-08-07T15:22:32;17.40;99.90
7498;DHT22;3790;48.806;9.140;2023-08-07T15:27:33;17.20;99.90
7498;DHT22;3790;48.806;9.140;2023-08-07T15:32:33;17.10;99.90
7498;DHT22;3790;48.806;9.140;2023-08-07T15:37:34;17.30;99.90
7498;DHT22;3790;48.806;9.140;2023-08-07T15:42:34;17.40;99.90
7498;DHT22;3790;48.806;9.140;2023-08-07T15:47:35;18.10;99.90
7498;DHT22;3790;48.806;9.140;2023-08-07T15:52:35;17.90;99.90
7498;DHT22;3790;48.806;9.140;2023-08-07T15:57:36;17.40;99.90
7498;DHT22;3790;48.806;9.140;2023-08-07T16:02:36;17.40;99.90
7498;DHT22;3790;48.806;9.140;2023-08-07T16:07:37;17.30;99.90
7498;DHT22;3790;48.806;9.140;2023-08-07T16:12:38;17.40;99.90
7498;DHT22;3790;48.806;9.140;2023-08-07T16:17:38;18.10;99.90
7498;DHT22;3790;48.806;9.140;2023-08-07T16:22:39;18.90;99.90
7498;DHT22;3790;48.806;9.140;2023-08-07T16:27:40;18.80;99.90
7498;DHT22;3790;48.806;9.140;2023-08-07T16:32:40;19.10;99.90
7498;DHT22;3790;48.806;9.140;2023-08-07T16:37:41;19.00;99.90
7498;DHT22;3790;48.806;9.140;2023-08-07T16:42:42;19.20;99.90
7498;DHT22;3790;48.806;9.140;2023-08-07T16:47:42;19.50;99.90
7498;DHT22;3790;48.806;9.140;2023-08-07T16:52:43;19.10;99.90
7498;DHT22;3790;48.806;9.140;2023-08-07T16:57:43;18.60;99.90
7498;DHT22;3790;48.806;9.140;2023-08-07T17:02:46;18.30;99.90
7498;DHT22;3790;48.806;9.140;2023-08-07T17:07:47;18.80;99.90
7498;DHT22;3790;48.806;9.140;2023-08-07T17:12:48;18.70;99.90
7498;DHT22;3790;48.806;9.140;2023-08-07T17:17:48;18.60;99.90
7498;DHT22;3790;48.806;9.140;2023-08-07T17:22:49;18.60;99.90
7498;DHT22;3790;48.806;9.140;2023-08-07T17:27:50;18.90;99.90
7498;DHT22;3790;48.806;9.140;2023-08-07T17:32:50;19.10;99.90
7498;DHT22;3790;48.806;9.140;2023-08-07T17:37:51;19.10;99.90
7498;DHT22;3790;48.806;9.140;2023-08-07T17:42:51;19.20;99.90
7498;DHT22;3790;48.806;9.140;2023-08-07T17:47:52;18.90;99.90
7498;DHT22;3790;48.806;9.140;2023-08-07T17:52:52;19.30;99.90
7498;DHT22;3790;48.806;9.140;2023-08-07T17:57:53;19.10;99.90
7498;DHT22;3790;48.806;9.140;2023-08-07T18:02:54;19.00;99.90
7498;DHT22;3790;48.806;9.140;2023-08-07T18:07:55;18.70;99.90
7498;DHT22;3790;48.806;9.140;2023-08-07T18:12:55;18.20;99.90
7498;DHT22;3790;48.806;9.140;2023-08-07T18:17:56;18.00;99.90
7498;DHT22;3790;48.806;9.140;2023-08-07T18:22:56;17.70;99.90
7498;DHT22;3790;48.806;9.140;2023-08-07T18:27:57;17.40;99.90
7498;DHT22;3790;48.806;9.140;2023-08-07T18:32:57;17.10;99.90
7498;DHT22;3790;48.806;9.140;2023-08-07T18:37:58;16.80;99.90
7498;DHT22;3790;48.806;9.140;2023-08-07T18:43:01;16.70;99.90
7498;DHT22;3790;48.806;9.140;2023-08-07T18:48:01;16.40;99.90
7498;DHT22;3790;48.806;9.140;2023-08-07T18:53:02;16.30;99.90
7498;DHT22;3790;48.806;9.140;2023-08-07T18:58:03;16.20;99.90
7498;DHT22;3790;48.806;9.140;2023-08-07T19:03:03;16.10;99.90
7498;DHT22;3790;48.806;9.140;2023-08-07T19:08:04;16.10;99.90
7498;DHT22;3790;48.806;9.140;2023-08-07T19:13:05;16.00;99.90
7498;DHT22;3790;48.806;9.140;2023-08-07T19:18:05;16.00;99.90
7498;DHT22;3790;48.806;9.140;2023-08-07T19:23:06;16.00;99.90
7498;DHT22;3790;48.806;9.140;2023-08-07T19:28:08;15.90;99.90
7498;DHT22;3790;48.806;9.140;2023-08-07T19:33:08;15.80;99.90
7498;DHT22;3790;48.806;9.140;2023-08-07T19:38:09;15.60;99.90
7498;DHT22;3790;48.806;9.140;2023-08-07T19:43:09;15.60;99.90
7498;DHT22;3790;48.806;9.140;2023-08-07T19:48:10;15.40;99.90
7498;DHT22;3790;48.806;9.140;2023-08-07T19:53:10;15.40;99.90
7498;DHT22;3790;48.806;9.140;2023-08-07T19:58:11;15.20;99.90
7498;DHT22;3790;48.806;9.140;2023-08-07T20:03:11;15.10;99.90
7498;DHT22;3790;48.806;9.140;2023-08-07T20:08:14;15.10;99.90
7498;DHT22;3790;48.806;9.140;2023-08-07T20:13:15;15.10;99.90
7498;DHT22;3790;48.806;9.140;2023-08-07T20:18:15;15.00;99.90
7498;DHT22;3790;48.806;9.140;2023-08-07T20:23:16;15.00;99.90
7498;DHT22;3790;48.806;9.140;2023-08-07T20:28:17;14.90;99.90
7498;DHT22;3790;48.806;9.140;2023-08-07T20:33:17;14.90;99.90
7498;DHT22;3790;48.806;9.140;2023-08-07T20:38:18;14.90;99.90
7498;DHT22;3790;48.806;9.140;2023-08-07T20:43:18;15.00;99.90
7498;DHT22;3790;48.806;9.140;2023-08-07T20:48:19;15.00;99.90
7498;DHT22;3790;48.806;9.140;2023-08-07T20:53:19;14.90;99.90
7498;DHT22;3790;48.806;9.140;2023-08-07T20:58:20;14.80;99.90
7498;DHT22;3790;48.806;9.140;2023-08-07T21:03:20;14.80;99.90
7498;DHT22;3790;48.806;9.140;2023-08-07T21:08:21;14.70;99.90
7498;DHT22;3790;48.806;9.140;2023-08-07T21:13:22;14.60;99.90
7498;DHT22;3790;48.806;9.140;2023-08-07T21:18:22;14.50;99.90
7498;DHT22;3790;48.806;9.140;2023-08-07T21:23:23;14.50;99.90
7498;DHT22;3790;48.806;9.140;2023-08-07T21:28:23;14.50;99.90
7498;DHT22;3790;48.806;9.140;2023-08-07T21:33:24;14.40;99.90
7498;DHT22;3790;48.806;9.140;2023-08-07T21:38:25;14.40;99.90
7498;DHT22;3790;48.806;9.140;2023-08-07T21:43:25;14.40;99.90
7498;DHT22;3790;48.806;9.140;2023-08-07T21:48:26;14.40;99.90
7498;DHT22;3790;48.806;9.140;2023-08-07T21:53:26;14.50;99.90
7498;DHT22;3790;48.806;9.140;2023-08-07T21:58:27;14.30;99.90
7498;DHT22;3790;48.806;9.140;2023-08-07T22:03:27;14.40;99.90
7498;DHT22;3790;48.806;9.140;2023-08-07T22:08:28;14.30;99.90
7498;DHT22;3790;48.806;9.140;2023-08-07T22:13:29;14.20;99.90
7498;DHT22;3790;48.806;9.140;2023-08-07T22:18:30;14.30;99.90
7498;DHT22;3790;48.806;9.140;2023-08-07T22:30:03;14.50;99.90
7498;DHT22;3790;48.806;9.140;2023-08-07T22:35:04;14.50;99.90
7498;DHT22;3790;48.806;9.140;2023-08-07T22:40:05;14.30;99.90
7498;DHT22;3790;48.806;9.140;2023-08-07T22:45:07;14.30;99.90
7498;DHT22;3790;48.806;9.140;2023-08-07T22:50:08;14.30;99.90
7498;DHT22;3790;48.806;9.140;2023-08-07T22:55:08;14.30;99.90
7498;DHT22;3790;48.806;9.140;2023-08-07T23:00:09;14.30;99.90
7498;DHT22;3790;48.806;9.140;2023-08-07T23:05:10;14.40;99.90
7498;DHT22;3790;48.806;9.140;2023-08-07T23:10:11;14.50;99.90
7498;DHT22;3790;48.806;9.140;2023-08-07T23:15:12;14.50;99.90
7498;DHT22;3790;48.806;9.140;2023-08-07T23:20:14;14.30;99.90
7498;DHT22;3790;48.806;9.140;2023-08-07T23:25:15;14.30;99.90
7498;DHT22;3790;48.806;9.140;2023-08-07T23:30:15;14.30;99.90
7498;DHT22;3790;48.806;9.140;2023-08-07T23:35:16;14.30;99.90
7498;DHT22;3790;48.806;9.140;2023-08-07T23:40:16;14.40;99.90
7498;DHT22;3790;48.806;9.140;2023-08-07T23:45:20;14.50;99.90
7498;DHT22;3790;48.806;9.140;2023-08-07T23:50:20;14.50;99.90
